createdAt,value
2023-03-26T00:00:40.936Z,56.30
2023-03-26T00:01:47.423Z,56.12
2023-03-26T00:02:49.754Z,55.97
2023-03-26T00:03:54.115Z,55.94
2023-03-26T00:04:56.456Z,55.86
2023-03-26T00:06:10.396Z,55.74
2023-03-26T00:07:13.186Z,55.65
2023-03-26T00:08:17.222Z,55.73
2023-03-26T00:09:19.966Z,55.53
2023-03-26T00:10:22.324Z,55.61
2023-03-26T00:11:27.767Z,55.61
2023-03-26T00:12:30.277Z,55.58
2023-03-26T00:13:33.507Z,55.48
2023-03-26T00:14:35.972Z,55.53
2023-03-26T00:15:38.864Z,55.39
2023-03-26T00:16:43.079Z,55.52
2023-03-26T00:17:46.837Z,55.36
2023-03-26T00:18:49.260Z,55.40
2023-03-26T00:19:53.836Z,55.32
2023-03-26T00:20:59.701Z,55.13
2023-03-26T00:22:03.817Z,55.35
2023-03-26T00:23:06.283Z,55.17
2023-03-26T00:24:16.616Z,55.15
2023-03-26T00:25:20.694Z,55.15
2023-03-26T00:26:24.278Z,55.13
2023-03-26T00:27:27.879Z,55.22
2023-03-26T00:28:30.432Z,55.08
2023-03-26T00:29:33.616Z,54.99
2023-03-26T00:30:37.454Z,55.19
2023-03-26T00:31:40.144Z,55.04
2023-03-26T00:32:43.602Z,54.91
2023-03-26T00:33:56.166Z,54.91
2023-03-26T00:34:58.537Z,54.86
2023-03-26T00:36:03.272Z,54.93
2023-03-26T00:37:08.195Z,54.68
2023-03-26T00:38:10.939Z,54.78
2023-03-26T00:39:14.308Z,54.69
2023-03-26T00:40:16.593Z,54.83
2023-03-26T00:41:26.555Z,54.65
2023-03-26T00:42:29.665Z,54.66
2023-03-26T00:43:34.740Z,54.82
2023-03-26T00:44:37.180Z,54.82
2023-03-26T00:45:40.070Z,54.64
2023-03-26T00:46:43.184Z,54.70
2023-03-26T00:47:45.682Z,54.67
2023-03-26T00:48:50.872Z,54.66
2023-03-26T00:49:53.622Z,54.84
2023-03-26T00:50:57.312Z,54.61
2023-03-26T00:51:59.586Z,54.54
2023-03-26T00:53:03.300Z,54.54
2023-03-26T00:54:08.009Z,54.67
2023-03-26T00:55:10.467Z,54.80
2023-03-26T00:56:13.275Z,54.69
2023-03-26T00:57:22.773Z,54.79
2023-03-26T00:58:28.236Z,55.11
2023-03-26T00:59:30.683Z,55.28
2023-03-26T01:00:36.675Z,55.41
2023-03-26T01:01:40.007Z,55.32
2023-03-26T01:02:45.361Z,55.54
2023-03-26T01:04:04.716Z,55.44
2023-03-26T01:05:42.857Z,55.62
2023-03-26T01:06:45.766Z,55.82
2023-03-26T01:07:48.046Z,55.75
2023-03-26T01:08:51.717Z,55.66
2023-03-26T01:09:55.221Z,55.74
2023-03-26T01:11:05.372Z,55.58
2023-03-26T01:12:11.008Z,55.77
2023-03-26T01:13:14.891Z,55.90
2023-03-26T01:14:27.000Z,56.27
2023-03-26T01:15:30.181Z,56.36
2023-03-26T01:16:55.249Z,56.42
2023-03-26T01:17:58.071Z,56.55
2023-03-26T01:19:00.835Z,56.60
2023-03-26T01:20:19.513Z,56.99
2023-03-26T01:21:28.825Z,57.05
2023-03-26T01:22:31.486Z,57.37
2023-03-26T01:23:46.786Z,57.28
2023-03-26T01:25:12.718Z,57.23
2023-03-26T01:26:33.519Z,57.29
2023-03-26T01:27:44.771Z,57.43
2023-03-26T01:28:48.815Z,57.67
2023-03-26T01:30:15.428Z,57.68
2023-03-26T01:31:29.908Z,57.71
2023-03-26T01:32:46.583Z,57.66
2023-03-26T01:34:00.480Z,57.84
2023-03-26T01:35:26.269Z,57.90
2023-03-26T01:36:38.880Z,57.72
2023-03-26T01:38:15.852Z,57.77
2023-03-26T01:39:49.763Z,57.71
2023-03-26T01:41:07.220Z,57.70
2023-03-26T01:42:21.227Z,57.82
2023-03-26T01:43:26.966Z,57.79
2023-03-26T01:44:45.148Z,57.61
2023-03-26T01:45:49.879Z,57.56
2023-03-26T01:46:53.229Z,57.69
2023-03-26T01:47:57.737Z,57.46
2023-03-26T01:49:00.135Z,57.57
2023-03-26T01:50:04.627Z,57.48
2023-03-26T01:51:08.148Z,57.46
2023-03-26T01:52:19.589Z,57.38
2023-03-26T01:53:23.429Z,57.29
2023-03-26T01:54:30.511Z,57.13
2023-03-26T01:55:43.857Z,57.14
2023-03-26T01:57:01.061Z,56.92
2023-03-26T01:58:12.770Z,57.06
2023-03-26T01:59:39.630Z,56.93
2023-03-26T02:00:55.180Z,56.75
2023-03-26T02:02:11.653Z,56.88
2023-03-26T02:03:26.675Z,56.81
2023-03-26T02:04:43.536Z,56.77
2023-03-26T02:06:26.027Z,56.72
2023-03-26T02:08:00.475Z,56.63
2023-03-26T02:09:08.871Z,56.85
2023-03-26T02:10:17.263Z,56.64
2023-03-26T02:11:21.574Z,56.72
2023-03-26T02:12:26.323Z,56.77
2023-03-26T02:13:30.514Z,56.76
2023-03-26T02:14:32.949Z,56.89
2023-03-26T02:15:35.861Z,56.83
2023-03-26T02:16:39.506Z,56.89
2023-03-26T02:17:42.022Z,56.95
2023-03-26T02:18:46.393Z,56.99
2023-03-26T02:19:51.745Z,56.91
2023-03-26T02:20:54.189Z,56.98
2023-03-26T02:22:00.365Z,56.82
2023-03-26T02:23:04.707Z,56.87
2023-03-26T02:24:07.649Z,57.00
2023-03-26T02:25:15.634Z,57.02
2023-03-26T02:26:20.164Z,57.14
2023-03-26T02:27:31.012Z,57.25
2023-03-26T02:28:33.795Z,57.31
2023-03-26T02:29:40.166Z,57.11
2023-03-26T02:30:46.225Z,57.39
2023-03-26T02:31:49.641Z,57.29
2023-03-26T02:32:55.220Z,57.32
2023-03-26T02:33:58.627Z,57.31
2023-03-26T02:35:03.544Z,57.48
2023-03-26T02:36:09.142Z,57.43
2023-03-26T02:37:11.632Z,57.39
2023-03-26T02:38:19.668Z,57.42
2023-03-26T02:39:21.966Z,57.46
2023-03-26T02:40:30.689Z,57.64
2023-03-26T02:41:33.773Z,57.67
2023-03-26T02:42:39.898Z,57.56
2023-03-26T02:43:42.270Z,57.49
2023-03-26T02:44:48.599Z,57.80
2023-03-26T02:45:54.414Z,57.75
2023-03-26T02:47:22.490Z,57.90
2023-03-26T02:48:27.878Z,57.99
2023-03-26T02:49:56.372Z,57.92
2023-03-26T02:51:06.965Z,57.88
2023-03-26T02:52:15.256Z,57.92
2023-03-26T02:53:17.667Z,57.89
2023-03-26T02:54:25.890Z,58.04
2023-03-26T02:55:38.633Z,57.96
2023-03-26T02:56:41.631Z,58.01
2023-03-26T02:57:58.915Z,58.38
2023-03-26T02:59:07.882Z,58.41
2023-03-26T03:00:16.796Z,58.49
2023-03-26T03:01:23.076Z,58.62
2023-03-26T03:02:39.083Z,58.66
2023-03-26T03:04:02.714Z,58.71
2023-03-26T03:05:11.953Z,58.64
2023-03-26T03:06:19.013Z,58.65
2023-03-26T03:07:30.365Z,58.43
2023-03-26T03:08:46.281Z,58.89
2023-03-26T03:10:15.672Z,58.49
2023-03-26T03:11:48.542Z,58.67
2023-03-26T03:12:52.214Z,58.67
2023-03-26T03:13:55.977Z,58.81
2023-03-26T03:15:01.141Z,58.70
2023-03-26T03:16:03.955Z,58.84
2023-03-26T03:17:06.805Z,58.73
2023-03-26T03:18:09.255Z,58.71
2023-03-26T03:19:11.730Z,58.85
2023-03-26T03:20:15.769Z,58.72
2023-03-26T03:21:18.087Z,58.87
2023-03-26T03:22:20.865Z,59.04
2023-03-26T03:23:25.230Z,59.02
2023-03-26T03:24:34.292Z,59.07
2023-03-26T03:25:38.479Z,59.11
2023-03-26T03:26:42.562Z,59.00
2023-03-26T03:28:04.682Z,58.97
2023-03-26T03:29:07.128Z,59.07
2023-03-26T03:30:13.696Z,59.09
2023-03-26T03:31:22.022Z,59.02
2023-03-26T03:32:25.118Z,58.88
2023-03-26T03:33:31.956Z,59.10
2023-03-26T03:34:34.208Z,59.01
2023-03-26T03:35:38.028Z,59.18
2023-03-26T03:36:43.403Z,59.04
2023-03-26T03:38:00.856Z,59.16
2023-03-26T03:39:06.876Z,59.03
2023-03-26T03:40:12.007Z,59.00
2023-03-26T03:41:15.264Z,58.83
2023-03-26T03:42:20.524Z,58.92
2023-03-26T03:43:24.640Z,59.00
2023-03-26T03:44:53.295Z,58.89
2023-03-26T03:46:19.314Z,58.72
2023-03-26T03:47:23.844Z,58.71
2023-03-26T03:48:26.881Z,58.85
2023-03-26T03:49:29.264Z,58.99
2023-03-26T03:50:35.661Z,59.03
2023-03-26T03:52:00.281Z,58.99
2023-03-26T03:53:16.223Z,58.94
2023-03-26T03:54:21.978Z,58.97
2023-03-26T03:55:42.297Z,59.04
2023-03-26T03:56:48.890Z,58.97
2023-03-26T03:58:25.232Z,58.87
2023-03-26T03:59:29.220Z,58.74
2023-03-26T04:00:32.817Z,58.74
2023-03-26T04:01:56.560Z,58.71
2023-03-26T04:03:07.101Z,58.59
2023-03-26T04:04:10.346Z,58.54
2023-03-26T04:05:26.990Z,58.62
2023-03-26T04:06:30.462Z,58.58
2023-03-26T04:07:33.678Z,58.53
2023-03-26T04:08:46.218Z,58.63
2023-03-26T04:09:48.969Z,58.53
2023-03-26T04:10:55.001Z,58.50
2023-03-26T04:12:28.526Z,58.67
2023-03-26T04:13:38.365Z,58.88
2023-03-26T04:14:59.213Z,58.72
2023-03-26T04:16:01.653Z,58.72
2023-03-26T04:17:06.105Z,58.67
2023-03-26T04:18:11.983Z,58.74
2023-03-26T04:19:17.910Z,58.74
2023-03-26T04:20:20.372Z,58.71
2023-03-26T04:21:25.190Z,59.07
2023-03-26T04:22:34.803Z,58.80
2023-03-26T04:23:39.614Z,59.09
2023-03-26T04:24:54.713Z,58.82
2023-03-26T04:26:18.798Z,59.11
2023-03-26T04:27:45.369Z,58.85
2023-03-26T04:28:56.610Z,58.88
2023-03-26T04:30:08.509Z,58.96
2023-03-26T04:31:15.989Z,59.12
2023-03-26T04:32:31.145Z,59.10
2023-03-26T04:33:35.210Z,59.19
2023-03-26T04:34:39.139Z,59.03
2023-03-26T04:35:48.578Z,59.13
2023-03-26T04:36:54.995Z,59.13
2023-03-26T04:38:06.659Z,59.26
2023-03-26T04:39:13.530Z,59.21
2023-03-26T04:40:54.223Z,59.18
2023-03-26T04:42:20.194Z,59.21
2023-03-26T04:43:47.609Z,59.22
2023-03-26T04:45:16.065Z,59.10
2023-03-26T04:46:24.597Z,59.09
2023-03-26T04:47:40.298Z,59.21
2023-03-26T04:48:43.385Z,59.12
2023-03-26T04:49:47.945Z,59.23
2023-03-26T04:50:51.625Z,59.16
2023-03-26T04:51:57.884Z,59.02
2023-03-26T04:53:21.630Z,58.94
2023-03-26T04:54:48.307Z,58.92
2023-03-26T04:56:03.836Z,58.96
2023-03-26T04:57:32.814Z,58.81
2023-03-26T04:58:45.181Z,58.67
2023-03-26T04:59:47.682Z,58.91
2023-03-26T05:00:50.370Z,59.16
2023-03-26T05:01:53.736Z,59.03
2023-03-26T05:03:01.896Z,58.94
2023-03-26T05:04:04.665Z,58.97
2023-03-26T05:05:09.588Z,58.93
2023-03-26T05:06:13.815Z,58.98
2023-03-26T05:07:24.155Z,59.05
2023-03-26T05:08:32.059Z,59.00
2023-03-26T05:09:34.488Z,59.01
2023-03-26T05:10:48.262Z,59.02
2023-03-26T05:11:59.843Z,59.12
2023-03-26T05:13:02.335Z,59.04
2023-03-26T05:14:11.369Z,59.02
2023-03-26T05:15:16.113Z,59.11
2023-03-26T05:16:34.125Z,59.05
2023-03-26T05:17:48.637Z,59.09
2023-03-26T05:18:58.771Z,58.91
2023-03-26T05:20:06.729Z,58.87
2023-03-26T05:21:09.257Z,58.92
2023-03-26T05:22:14.164Z,58.75
2023-03-26T05:23:33.084Z,58.65
2023-03-26T05:24:46.931Z,58.54
2023-03-26T05:25:49.717Z,58.60
2023-03-26T05:26:56.140Z,58.61
2023-03-26T05:28:00.781Z,58.54
2023-03-26T05:29:10.656Z,58.47
2023-03-26T05:30:22.197Z,58.50
2023-03-26T05:31:32.594Z,58.53
2023-03-26T05:32:36.807Z,58.57
2023-03-26T05:33:39.416Z,58.51
2023-03-26T05:34:45.166Z,58.49
2023-03-26T05:35:49.708Z,58.43
2023-03-26T05:36:52.369Z,58.52
2023-03-26T05:38:08.038Z,58.53
2023-03-26T05:39:10.514Z,58.55
2023-03-26T05:40:47.761Z,58.45
2023-03-26T05:41:56.152Z,58.38
2023-03-26T05:43:04.792Z,58.46
2023-03-26T05:44:14.118Z,58.50
2023-03-26T05:45:16.771Z,58.51
2023-03-26T05:46:20.643Z,58.43
2023-03-26T05:47:23.093Z,58.56
2023-03-26T05:48:27.174Z,58.51
2023-03-26T05:49:29.634Z,58.37
2023-03-26T05:50:33.530Z,58.41
2023-03-26T05:51:36.392Z,58.47
2023-03-26T05:53:01.144Z,58.54
2023-03-26T05:54:23.009Z,58.58
2023-03-26T05:55:46.086Z,58.57
2023-03-26T05:57:08.360Z,58.55
2023-03-26T05:58:32.688Z,58.57
2023-03-26T05:59:54.296Z,58.74
2023-03-26T06:01:17.270Z,58.53
2023-03-26T06:02:40.327Z,58.65
2023-03-26T06:04:20.267Z,58.64
2023-03-26T06:05:43.973Z,58.61
2023-03-26T06:06:52.966Z,58.72
2023-03-26T06:08:01.102Z,58.77
2023-03-26T06:09:14.977Z,58.69
2023-03-26T06:10:19.152Z,58.80
2023-03-26T06:11:22.036Z,58.57
2023-03-26T06:12:24.340Z,58.32
2023-03-26T06:13:28.976Z,58.50
2023-03-26T06:14:32.308Z,58.43
2023-03-26T06:15:47.823Z,58.35
2023-03-26T06:17:06.971Z,58.34
2023-03-26T06:18:29.328Z,58.24
2023-03-26T06:19:48.161Z,58.18
2023-03-26T06:20:59.732Z,57.88
2023-03-26T06:22:26.679Z,57.74
2023-03-26T06:23:49.408Z,57.62
2023-03-26T06:25:09.158Z,57.61
2023-03-26T06:26:19.254Z,57.71
2023-03-26T06:27:36.137Z,57.64
2023-03-26T06:28:56.915Z,57.53
2023-03-26T06:30:28.292Z,57.75
2023-03-26T06:31:46.430Z,57.76
2023-03-26T06:32:54.734Z,57.89
2023-03-26T06:34:00.991Z,58.01
2023-03-26T06:35:04.438Z,57.99
2023-03-26T06:36:07.180Z,57.87
2023-03-26T06:37:09.649Z,57.54
2023-03-26T06:38:12.701Z,57.29
2023-03-26T06:39:16.332Z,57.46
2023-03-26T06:40:28.058Z,57.04
2023-03-26T06:41:48.919Z,56.99
2023-03-26T06:43:11.071Z,56.97
2023-03-26T06:44:32.280Z,56.49
2023-03-26T06:45:53.098Z,56.14
2023-03-26T06:47:10.687Z,55.94
2023-03-26T06:48:31.907Z,55.53
2023-03-26T06:49:56.774Z,54.64
2023-03-26T06:51:16.156Z,53.87
2023-03-26T06:52:38.069Z,53.74
2023-03-26T06:54:09.822Z,53.46
2023-03-26T06:55:31.549Z,52.65
2023-03-26T06:57:00.316Z,52.54
2023-03-26T06:58:22.634Z,52.46
2023-03-26T06:59:43.602Z,52.00
2023-03-26T07:01:04.814Z,51.44
2023-03-26T07:02:25.882Z,51.18
2023-03-26T07:03:46.823Z,51.08
2023-03-26T07:05:08.976Z,50.61
2023-03-26T07:06:31.345Z,50.50
2023-03-26T07:07:52.128Z,50.66
2023-03-26T07:09:12.784Z,50.25
2023-03-26T07:10:40.971Z,50.51
2023-03-26T07:11:46.639Z,50.06
2023-03-26T07:13:08.042Z,50.13
2023-03-26T07:14:30.854Z,50.00
2023-03-26T07:15:40.700Z,50.11
2023-03-26T07:17:10.063Z,49.91
2023-03-26T07:18:22.309Z,49.79
2023-03-26T07:19:26.680Z,49.96
2023-03-26T07:20:29.773Z,49.95
2023-03-26T07:21:33.645Z,49.80
2023-03-26T07:22:38.890Z,49.75
2023-03-26T07:24:13.899Z,49.87
2023-03-26T07:25:34.825Z,49.58
2023-03-26T07:27:02.483Z,49.45
2023-03-26T07:28:18.753Z,49.43
2023-03-26T07:30:36.589Z,49.84
2023-03-26T07:32:07.242Z,49.87
2023-03-26T07:33:57.589Z,49.42
2023-03-26T07:35:23.096Z,49.59
2023-03-26T07:37:01.539Z,49.79
2023-03-26T07:38:37.255Z,49.78
2023-03-26T07:40:27.548Z,49.56
2023-03-26T07:42:45.416Z,49.76
2023-03-26T07:44:29.828Z,49.50
2023-03-26T07:45:54.398Z,49.28
2023-03-26T07:47:27.860Z,49.25
2023-03-26T07:48:50.257Z,48.98
2023-03-26T07:50:22.431Z,49.20
2023-03-26T07:51:40.742Z,49.11
2023-03-26T07:52:53.600Z,49.17
2023-03-26T07:54:06.407Z,49.08
2023-03-26T07:55:28.592Z,49.01
2023-03-26T07:56:59.253Z,49.24
2023-03-26T07:59:15.701Z,49.45
2023-03-26T08:00:52.532Z,49.18
2023-03-26T08:02:05.066Z,49.01
2023-03-26T08:03:36.097Z,48.89
2023-03-26T08:05:36.412Z,49.10
2023-03-26T08:07:21.357Z,49.07
2023-03-26T08:08:56.852Z,48.97
2023-03-26T08:10:11.256Z,48.91
2023-03-26T08:11:30.158Z,49.03
2023-03-26T08:12:53.721Z,49.18
2023-03-26T08:13:59.110Z,49.24
2023-03-26T08:15:06.094Z,49.15
2023-03-26T08:16:25.652Z,49.41
2023-03-26T08:17:45.875Z,49.15
2023-03-26T08:19:08.163Z,49.46
2023-03-26T08:20:16.698Z,49.33
2023-03-26T08:21:35.777Z,49.18
2023-03-26T08:22:51.992Z,49.41
2023-03-26T08:24:05.056Z,49.40
2023-03-26T08:25:33.571Z,49.35
2023-03-26T08:26:49.294Z,49.14
2023-03-26T08:28:08.742Z,49.29
2023-03-26T08:29:22.836Z,49.20
2023-03-26T08:30:27.207Z,49.12
2023-03-26T08:31:35.633Z,49.05
2023-03-26T08:32:38.426Z,49.12
2023-03-26T08:33:41.221Z,49.02
2023-03-26T08:34:45.145Z,49.33
2023-03-26T08:35:49.422Z,49.22
2023-03-26T08:36:52.421Z,49.29
2023-03-26T08:37:55.539Z,49.30
2023-03-26T08:39:00.017Z,49.31
2023-03-26T08:40:02.495Z,49.51
2023-03-26T08:41:08.945Z,49.31
2023-03-26T08:42:19.956Z,49.44
2023-03-26T08:43:39.291Z,49.62
2023-03-26T08:45:23.915Z,49.75
2023-03-26T08:46:39.533Z,49.75
2023-03-26T08:47:59.403Z,49.77
2023-03-26T08:49:02.526Z,49.73
2023-03-26T08:50:34.316Z,49.92
2023-03-26T08:51:57.669Z,49.92
2023-03-26T08:53:09.269Z,49.69
2023-03-26T08:54:48.606Z,50.07
2023-03-26T08:56:30.017Z,49.93
2023-03-26T08:58:04.327Z,49.69
2023-03-26T08:59:27.972Z,49.75
2023-03-26T09:00:57.287Z,49.86
2023-03-26T09:02:30.117Z,49.91
2023-03-26T09:04:08.254Z,49.86
2023-03-26T09:05:36.496Z,50.02
2023-03-26T09:07:18.100Z,49.84
2023-03-26T09:08:53.763Z,50.10
2023-03-26T09:10:03.275Z,49.93
2023-03-26T09:11:47.406Z,50.29
2023-03-26T09:13:07.964Z,50.20
2023-03-26T09:14:25.206Z,50.17
2023-03-26T09:15:43.189Z,50.33
2023-03-26T09:17:16.129Z,50.52
2023-03-26T09:18:56.087Z,50.23
2023-03-26T09:20:09.501Z,50.33
2023-03-26T09:21:40.583Z,50.39
2023-03-26T09:23:01.721Z,50.31
2023-03-26T09:24:30.758Z,50.34
2023-03-26T09:25:54.931Z,50.21
2023-03-26T09:27:38.299Z,50.26
2023-03-26T09:29:11.548Z,50.53
2023-03-26T09:30:13.798Z,50.47
2023-03-26T09:31:26.524Z,50.26
2023-03-26T09:32:50.897Z,50.35
2023-03-26T09:34:02.066Z,50.42
2023-03-26T09:35:38.600Z,50.25
2023-03-26T09:36:43.610Z,50.36
2023-03-26T09:38:01.368Z,50.13
2023-03-26T09:39:58.871Z,50.25
2023-03-26T09:41:14.061Z,50.53
2023-03-26T09:42:43.400Z,50.35
2023-03-26T09:44:20.195Z,50.23
2023-03-26T09:45:48.668Z,50.24
2023-03-26T09:47:08.955Z,50.30
2023-03-26T09:48:41.974Z,50.40
2023-03-26T09:50:16.001Z,50.58
2023-03-26T09:51:18.617Z,50.62
2023-03-26T09:52:46.955Z,50.52
2023-03-26T09:53:52.855Z,50.13
2023-03-26T09:55:38.863Z,50.22
2023-03-26T09:57:07.011Z,50.04
2023-03-26T09:58:47.619Z,49.96
2023-03-26T10:00:27.640Z,50.08
2023-03-26T10:01:38.989Z,49.92
2023-03-26T10:03:18.620Z,49.53
2023-03-26T10:05:05.301Z,49.53
2023-03-26T10:06:20.406Z,49.00
2023-03-26T10:07:47.247Z,48.93
2023-03-26T10:09:20.950Z,48.52
2023-03-26T10:10:47.597Z,48.41
2023-03-26T10:12:23.482Z,48.34
2023-03-26T10:13:32.600Z,47.67
2023-03-26T10:14:45.601Z,47.63
2023-03-26T10:16:00.509Z,47.57
2023-03-26T10:17:32.187Z,47.26
2023-03-26T10:18:57.948Z,46.86
2023-03-26T10:20:28.958Z,46.68
2023-03-26T10:21:47.623Z,46.75
2023-03-26T10:23:02.324Z,46.51
2023-03-26T10:24:20.696Z,46.50
2023-03-26T10:25:37.194Z,46.54
2023-03-26T10:27:10.852Z,46.86
2023-03-26T10:28:43.871Z,46.96
2023-03-26T10:30:15.657Z,46.82
2023-03-26T10:31:37.207Z,47.22
2023-03-26T10:33:05.568Z,47.18
2023-03-26T10:34:31.139Z,47.09
2023-03-26T10:36:11.664Z,46.90
2023-03-26T10:37:40.479Z,45.88
2023-03-26T10:38:51.996Z,46.01
2023-03-26T10:40:06.224Z,45.69
2023-03-26T10:41:55.812Z,46.01
2023-03-26T10:43:22.773Z,45.81
2023-03-26T10:44:45.508Z,45.67
2023-03-26T10:46:03.267Z,45.08
2023-03-26T10:47:33.597Z,44.92
2023-03-26T10:48:51.848Z,44.65
2023-03-26T10:50:17.082Z,44.68
2023-03-26T10:51:43.612Z,44.04
2023-03-26T10:53:03.449Z,43.68
2023-03-26T10:54:30.804Z,43.43
2023-03-26T10:55:36.670Z,43.31
2023-03-26T10:56:46.625Z,43.51
2023-03-26T10:58:12.919Z,43.21
2023-03-26T10:59:19.412Z,42.80
2023-03-26T11:00:30.170Z,42.53
2023-03-26T11:01:49.653Z,42.34
2023-03-26T11:03:10.333Z,42.47
2023-03-26T11:04:25.910Z,42.69
2023-03-26T11:05:56.407Z,42.46
2023-03-26T11:07:27.375Z,42.04
2023-03-26T11:08:47.892Z,41.82
2023-03-26T11:10:14.286Z,41.47
2023-03-26T11:11:30.104Z,41.23
2023-03-26T11:12:41.717Z,40.95
2023-03-26T11:13:59.645Z,41.34
2023-03-26T11:15:33.236Z,41.34
2023-03-26T11:16:52.791Z,41.35
2023-03-26T11:18:08.439Z,41.06
2023-03-26T11:19:27.477Z,40.98
2023-03-26T11:20:39.913Z,39.94
2023-03-26T11:21:42.209Z,40.24
2023-03-26T11:22:57.430Z,40.20
2023-03-26T11:24:27.009Z,40.81
2023-03-26T11:25:32.276Z,40.17
2023-03-26T11:26:49.306Z,40.33
2023-03-26T11:28:09.640Z,39.94
2023-03-26T11:29:31.630Z,39.98
2023-03-26T11:30:41.874Z,39.84
2023-03-26T11:31:45.003Z,39.75
2023-03-26T11:32:57.824Z,39.81
2023-03-26T11:34:06.613Z,39.74
2023-03-26T11:35:40.683Z,39.79
2023-03-26T11:36:50.275Z,39.24
2023-03-26T11:37:56.811Z,39.22
2023-03-26T11:39:04.931Z,39.32
2023-03-26T11:40:38.382Z,39.00
2023-03-26T11:41:40.921Z,39.37
2023-03-26T11:43:00.884Z,38.70
2023-03-26T11:44:27.543Z,39.26
2023-03-26T11:45:37.510Z,38.92
2023-03-26T11:46:44.132Z,38.86
2023-03-26T11:47:57.676Z,38.57
2023-03-26T11:49:03.786Z,38.26
2023-03-26T11:50:14.903Z,38.11
2023-03-26T11:51:23.479Z,38.18
2023-03-26T11:52:27.014Z,38.50
2023-03-26T11:53:33.164Z,38.58
2023-03-26T11:54:37.346Z,38.18
2023-03-26T11:55:44.917Z,37.78
2023-03-26T11:57:06.061Z,37.95
2023-03-26T11:58:23.132Z,38.30
2023-03-26T11:59:53.090Z,38.66
2023-03-26T12:01:12.974Z,38.49
2023-03-26T12:02:24.829Z,38.49
2023-03-26T12:03:30.468Z,38.59
2023-03-26T12:04:40.759Z,38.38
2023-03-26T12:05:49.391Z,38.02
2023-03-26T12:06:57.908Z,38.13
2023-03-26T12:08:03.394Z,38.24
2023-03-26T12:09:17.658Z,38.21
2023-03-26T12:10:38.456Z,38.18
2023-03-26T12:11:44.667Z,37.84
2023-03-26T12:12:49.238Z,37.61
2023-03-26T12:13:58.257Z,37.89
2023-03-26T12:15:01.278Z,38.17
2023-03-26T12:16:19.656Z,38.25
2023-03-26T12:17:34.271Z,38.02
2023-03-26T12:18:38.552Z,38.03
2023-03-26T12:19:43.405Z,38.01
2023-03-26T12:20:45.950Z,38.33
2023-03-26T12:21:50.537Z,38.29
2023-03-26T12:22:59.411Z,38.40
2023-03-26T12:24:06.340Z,38.47
2023-03-26T12:25:23.039Z,38.52
2023-03-26T12:26:35.182Z,38.30
2023-03-26T12:27:38.217Z,38.40
2023-03-26T12:28:45.725Z,38.70
2023-03-26T12:30:20.010Z,38.94
2023-03-26T12:31:22.668Z,38.79
2023-03-26T12:32:35.534Z,38.60
2023-03-26T12:34:08.203Z,38.70
2023-03-26T12:35:26.948Z,39.06
2023-03-26T12:36:33.546Z,38.65
2023-03-26T12:37:43.495Z,38.90
2023-03-26T12:38:46.333Z,38.72
2023-03-26T12:40:34.477Z,38.93
2023-03-26T12:43:40.320Z,39.42
2023-03-26T12:44:50.230Z,39.42
2023-03-26T12:44:59.352Z,39.37
2023-03-26T12:47:55.708Z,39.36
2023-03-26T12:48:00.565Z,39.27
2023-03-26T12:49:08.948Z,39.32
2023-03-26T12:50:15.540Z,39.38
2023-03-26T12:51:33.317Z,39.43
2023-03-26T12:52:56.012Z,39.54
2023-03-26T12:54:16.393Z,39.31
2023-03-26T12:55:36.998Z,38.96
2023-03-26T12:57:12.417Z,38.71
2023-03-26T12:58:56.157Z,39.47
2023-03-26T13:00:36.307Z,39.49
2023-03-26T13:01:55.042Z,39.99
2023-03-26T13:03:24.498Z,39.59
2023-03-26T13:05:05.050Z,39.59
2023-03-26T13:06:30.200Z,39.63
2023-03-26T13:07:51.875Z,39.30
2023-03-26T13:09:19.806Z,39.73
2023-03-26T13:11:05.465Z,39.75
2023-03-26T13:12:28.131Z,39.92
2023-03-26T13:13:34.372Z,40.04
2023-03-26T13:14:57.701Z,40.00
2023-03-26T13:16:17.932Z,40.00
2023-03-26T13:17:57.904Z,40.38
2023-03-26T13:19:13.438Z,40.25
2023-03-26T13:20:34.350Z,40.16
2023-03-26T13:22:13.328Z,40.29
2023-03-26T13:23:31.887Z,40.55
2023-03-26T13:24:53.929Z,40.70
2023-03-26T13:26:12.413Z,40.64
2023-03-26T13:27:17.682Z,40.47
2023-03-26T13:28:36.480Z,40.73
2023-03-26T13:30:14.757Z,40.59
2023-03-26T13:31:22.529Z,40.13
2023-03-26T13:32:40.101Z,39.92
2023-03-26T13:33:57.769Z,39.83
2023-03-26T13:35:25.274Z,39.74
2023-03-26T13:36:36.357Z,40.06
2023-03-26T13:37:50.848Z,39.89
2023-03-26T13:39:03.859Z,39.82
2023-03-26T13:40:25.791Z,39.88
2023-03-26T13:42:01.180Z,40.44
2023-03-26T13:43:12.313Z,40.21
2023-03-26T13:44:20.468Z,39.87
2023-03-26T13:45:49.259Z,40.03
2023-03-26T13:47:15.748Z,40.18
2023-03-26T13:48:24.617Z,39.94
2023-03-26T13:49:43.061Z,40.02
2023-03-26T13:50:58.348Z,40.33
2023-03-26T13:52:06.842Z,40.27
2023-03-26T13:53:18.460Z,40.27
2023-03-26T13:54:32.965Z,40.41
2023-03-26T13:55:46.124Z,40.35
2023-03-26T13:57:00.246Z,40.33
2023-03-26T13:58:34.412Z,40.42
2023-03-26T13:59:52.350Z,40.40
2023-03-26T14:01:33.947Z,40.44
2023-03-26T14:02:40.778Z,40.43
2023-03-26T14:04:06.574Z,40.58
2023-03-26T14:05:21.939Z,40.97
2023-03-26T14:06:42.443Z,40.75
2023-03-26T14:07:49.726Z,40.68
2023-03-26T14:08:58.584Z,40.96
2023-03-26T14:10:06.009Z,40.71
2023-03-26T14:11:13.204Z,40.79
2023-03-26T14:12:29.272Z,40.92
2023-03-26T14:13:43.876Z,40.74
2023-03-26T14:14:53.357Z,40.82
2023-03-26T14:16:03.588Z,41.10
2023-03-26T14:17:49.391Z,41.13
2023-03-26T14:19:19.636Z,40.87
2023-03-26T14:20:51.935Z,40.99
2023-03-26T14:22:04.012Z,41.26
2023-03-26T14:23:34.375Z,41.14
2023-03-26T14:24:53.864Z,41.37
2023-03-26T14:26:20.764Z,41.21
2023-03-26T14:27:39.031Z,41.49
2023-03-26T14:29:03.064Z,41.45
2023-03-26T14:30:32.271Z,41.60
2023-03-26T14:32:12.123Z,41.73
2023-03-26T14:33:34.297Z,42.26
2023-03-26T14:35:07.433Z,42.70
2023-03-26T14:36:25.568Z,43.10
2023-03-26T14:37:48.079Z,43.43
2023-03-26T14:39:15.171Z,43.63
2023-03-26T14:40:48.163Z,43.68
2023-03-26T14:41:53.739Z,44.04
2023-03-26T14:43:22.948Z,44.01
2023-03-26T14:44:49.265Z,44.10
2023-03-26T14:45:58.042Z,44.32
2023-03-26T14:47:21.610Z,44.30
2023-03-26T14:48:53.659Z,44.37
2023-03-26T14:50:15.955Z,44.70
2023-03-26T14:51:30.732Z,44.76
2023-03-26T14:52:50.981Z,44.95
2023-03-26T14:53:59.963Z,44.92
2023-03-26T14:55:07.830Z,45.32
2023-03-26T14:56:25.898Z,45.31
2023-03-26T14:57:56.408Z,45.50
2023-03-26T14:59:17.343Z,45.41
2023-03-26T15:00:55.692Z,45.41
2023-03-26T15:03:05.386Z,45.55
2023-03-26T15:04:44.233Z,45.87
2023-03-26T15:06:17.698Z,45.99
2023-03-26T15:07:51.718Z,46.06
2023-03-26T15:09:09.429Z,46.18
2023-03-26T15:10:41.316Z,46.26
2023-03-26T15:11:53.980Z,46.43
2023-03-26T15:13:44.841Z,46.43
2023-03-26T15:15:05.395Z,46.40
2023-03-26T15:16:27.587Z,46.63
2023-03-26T15:18:10.423Z,46.78
2023-03-26T15:19:37.038Z,46.69
2023-03-26T15:20:51.943Z,47.06
2023-03-26T15:22:27.633Z,47.06
2023-03-26T15:23:46.982Z,47.21
2023-03-26T15:25:04.801Z,47.39
2023-03-26T15:26:37.321Z,47.28
2023-03-26T15:28:10.567Z,47.41
2023-03-26T15:29:48.470Z,47.62
2023-03-26T15:31:10.143Z,47.80
2023-03-26T15:32:41.412Z,47.99
2023-03-26T15:33:58.782Z,47.79
2023-03-26T15:35:10.169Z,48.17
2023-03-26T15:36:51.130Z,47.97
2023-03-26T15:37:56.947Z,48.37
2023-03-26T15:39:05.518Z,48.50
2023-03-26T15:40:36.514Z,48.30
2023-03-26T15:41:53.739Z,48.54
2023-03-26T15:43:14.498Z,48.71
2023-03-26T15:44:53.049Z,48.75
2023-03-26T15:46:54.173Z,48.76
2023-03-26T15:48:04.220Z,49.13
2023-03-26T15:49:33.577Z,49.18
2023-03-26T15:50:58.571Z,49.45
2023-03-26T15:52:46.132Z,49.30
2023-03-26T15:53:58.946Z,49.63
2023-03-26T15:55:18.920Z,49.91
2023-03-26T15:56:34.377Z,49.96
2023-03-26T15:57:57.449Z,49.91
2023-03-26T15:59:18.255Z,50.08
2023-03-26T16:00:24.836Z,50.32
2023-03-26T16:01:46.692Z,50.31
2023-03-26T16:03:10.509Z,50.56
2023-03-26T16:04:52.001Z,50.36
2023-03-26T16:06:14.514Z,50.69
2023-03-26T16:07:41.586Z,50.74
2023-03-26T16:09:13.132Z,50.77
2023-03-26T16:10:28.446Z,51.10
2023-03-26T16:11:47.871Z,51.06
2023-03-26T16:13:34.673Z,51.36
2023-03-26T16:15:06.002Z,51.41
2023-03-26T16:16:21.048Z,51.57
2023-03-26T16:17:23.733Z,51.81
2023-03-26T16:18:37.483Z,51.87
2023-03-26T16:20:19.116Z,51.85
2023-03-26T16:21:36.900Z,52.30
2023-03-26T16:22:56.461Z,52.46
2023-03-26T16:24:08.697Z,52.70